Savoy, Massachusetts
Current Conditions -  °F | °C
As of 1:52 PM on Thursday 30 Oct 2014 (Local Time) from KAQW Reporting Station
Overcast Overcast  
Wind Chill: 50°   Ceiling: 4800
Heat Index: 50°   Visibility: 10mi
Dew Point: 36°   Wind: 3mph
Humidity: 59%   Direction: 270°W
Pressure: 29.95"   Gusts: NA
Location:  42.57°N, 73.03°W
Report Text: KAQW 301752Z AUTO 27003KT 10SM FEW038 OVC048 10/02 A2995 RMK AO2 SLP145 T01000022 10106 20078 58005
Loading
Personal Weather Stations






























Interactive Weather Map
Tropical Storm Tracking
New forecast layout! Learn more

10-Day Weather Forecast

Advertisements
Track Severe Weather on mobile